Time;durP1;ratioP1;P1;durP2;ratioP2;P2;SDS_P1;SDS_P2;PMS_P1;PMS_P2;Temp;Humidity;BMP_temperature;BMP_pressure;BME280_temperature;BME280_humidity;BME280_pressure;Samples;Min_cycle;Max_cycle;Signal;HPM_P1;HPM_P2
2022/12/04 00:02:10;;;;;;;83.57;28.93;;;;;;;-0.78;98.82;101284.69;5092613;28;20666;-80
2022/12/04 00:04:36;;;;;;;83.03;28.17;;;;;;;-0.77;98.71;101287.28;5096205;28;20273;-81
2022/12/04 00:07:03;;;;;;;78.77;27.57;;;;;;;-0.77;98.80;101282.06;5095485;28;20211;-81
2022/12/04 00:09:29;;;;;;;83.27;27.63;;;;;;;-0.76;99.18;101275.97;5094873;28;20203;-81
2022/12/04 00:11:58;;;;;;;93.30;29.50;;;;;;;-0.75;99.11;101277.69;5087726;28;20215;-80
2022/12/04 00:14:24;;;;;;;81.60;29.00;;;;;;;-0.72;99.24;101282.03;5094437;28;20658;-80
2022/12/04 00:16:51;;;;;;;86.40;28.47;;;;;;;-0.73;99.09;101283.78;5088334;28;20571;-80
2022/12/04 00:19:17;;;;;;;78.93;25.87;;;;;;;-0.73;98.98;101282.91;5092531;28;20204;-80
2022/12/04 00:21:44;;;;;;;91.07;28.57;;;;;;;-0.73;99.49;101278.56;5095519;28;20201;-79
2022/12/04 00:24:11;;;;;;;85.47;29.20;;;;;;;-0.72;99.20;101292.50;5086002;28;20271;-80
2022/12/04 00:26:37;;;;;;;70.30;24.67;;;;;;;-0.71;99.26;101283.75;5083240;28;20224;-79
2022/12/04 00:29:05;;;;;;;75.50;26.70;;;;;;;-0.70;99.39;101283.72;5087627;28;20205;-80
2022/12/04 00:31:32;;;;;;;75.47;24.77;;;;;;;-0.70;99.66;101277.63;5086344;28;20232;-82
2022/12/04 00:33:59;;;;;;;83.73;26.90;;;;;;;-0.71;99.33;101275.91;5092259;28;20200;-79
2022/12/04 00:36:28;;;;;;;81.70;26.27;;;;;;;-0.70;99.37;101282.88;5087819;28;20231;-80
2022/12/04 00:38:55;;;;;;;74.40;23.27;;;;;;;-0.71;99.65;101279.38;5087324;28;20208;-80
2022/12/04 00:41:23;;;;;;;71.07;24.77;;;;;;;-0.71;99.51;101276.78;5083613;28;20201;-80
2022/12/04 00:43:50;;;;;;;90.27;28.50;;;;;;;-0.70;99.36;101275.88;5090750;28;20247;-80
2022/12/04 00:46:18;;;;;;;87.30;28.07;;;;;;;-0.72;99.39;101282.88;5090426;28;20659;-80
2022/12/04 00:48:45;;;;;;;86.80;23.93;;;;;;;-0.73;99.57;101272.47;5088214;28;20204;-81
2022/12/04 00:51:14;;;;;;;93.53;28.73;;;;;;;-0.74;99.83;101284.66;5088796;28;20695;-81
2022/12/04 00:53:40;;;;;;;87.40;25.70;;;;;;;-0.74;99.85;101279.44;5083414;28;20200;-79
2022/12/04 00:56:09;;;;;;;83.83;26.50;;;;;;;-0.75;99.54;101279.44;5086445;28;20271;-80
2022/12/04 00:58:36;;;;;;;92.07;27.37;;;;;;;-0.75;99.58;101276.81;5091173;28;20208;-81
2022/12/04 01:01:07;;;;;;;91.47;27.20;;;;;;;-0.76;99.92;101278.56;5088351;28;20208;-80
2022/12/04 01:03:36;;;;;;;83.43;26.50;;;;;;;-0.76;99.98;101275.09;5084358;28;20540;-81
2022/12/04 01:06:24;;;;;;;91.20;26.93;;;;;;;-0.75;100.00;101271.59;5091976;28;20786;-81
2022/12/04 01:08:53;;;;;;;83.27;27.13;;;;;;;-0.77;100.00;101276.84;5084590;28;20234;-80
2022/12/04 01:11:21;;;;;;;72.53;22.17;;;;;;;-0.75;100.00;101279.44;5087350;28;20232;-81
2022/12/04 01:13:48;;;;;;;66.10;22.07;;;;;;;-0.75;100.00;101274.22;5087772;28;20693;-79
2022/12/04 01:16:22;;;;;;;83.20;24.60;;;;;;;-0.76;100.00;101262.00;5084194;28;20709;-81
2022/12/04 01:18:53;;;;;;;78.67;23.37;;;;;;;-0.75;100.00;101263.75;5085859;28;20212;-80
2022/12/04 01:21:22;;;;;;;75.40;24.27;;;;;;;-0.75;100.00;101248.94;5083754;28;20192;-80
2022/12/04 01:26:29;;;;;;;83.73;25.13;;;;;;;-0.76;100.00;101255.03;5080205;28;20236;-80
2022/12/04 01:28:56;;;;;;;80.63;24.37;;;;;;;-0.75;100.00;101258.53;5086796;28;20982;-79
2022/12/04 01:31:23;;;;;;;84.43;24.93;;;;;;;-0.76;100.00;101257.66;5087115;28;20312;-79
2022/12/04 01:33:54;;;;;;;73.73;23.40;;;;;;;-0.75;100.00;101248.06;5086127;28;20219;-81
2022/12/04 01:36:29;;;;;;;74.40;24.47;;;;;;;-0.74;100.00;101258.50;5085937;28;20239;-80
2022/12/04 01:38:56;;;;;;;76.30;24.87;;;;;;;-0.74;100.00;101253.28;5082530;28;20203;-80
2022/12/04 01:41:25;;;;;;;67.70;22.03;;;;;;;-0.74;100.00;101240.19;5083712;28;20208;-79
2022/12/04 01:44:07;;;;;;;75.10;23.47;;;;;;;-0.73;100.00;101241.94;5083974;28;20654;-79
2022/12/04 01:46:34;;;;;;;77.40;23.60;;;;;;;-0.74;100.00;101239.34;5083648;28;20228;-81
2022/12/04 01:49:03;;;;;;;80.03;23.80;;;;;;;-0.76;100.00;101239.34;5083143;28;20791;-80
2022/12/04 01:51:35;;;;;;;85.73;25.70;;;;;;;-0.75;100.00;101240.22;5086939;28;20215;-79
2022/12/04 01:54:06;;;;;;;77.87;23.83;;;;;;;-0.76;100.00;101244.56;5079436;28;20211;-79
2022/12/04 01:56:38;;;;;;;87.13;25.37;;;;;;;-0.74;100.00;101242.81;5078080;28;20225;-79
2022/12/04 01:59:07;;;;;;;66.80;21.07;;;;;;;-0.73;100.00;101243.69;5082712;28;20209;-79
2022/12/04 02:01:44;;;;;;;72.10;23.47;;;;;;;-0.73;100.00;101238.44;5078966;28;20879;-80
2022/12/04 02:04:12;;;;;;;65.73;22.60;;;;;;;-0.73;100.00;101246.31;5086558;28;20570;-79
2022/12/04 02:06:38;;;;;;;69.30;22.20;;;;;;;-0.72;100.00;101248.88;5082048;28;20221;-79
2022/12/04 02:09:05;;;;;;;70.57;23.80;;;;;;;-0.71;100.00;101245.38;5082039;28;20204;-79
2022/12/04 02:11:41;;;;;;;70.13;24.13;;;;;;;-0.71;100.00;101250.63;5090521;28;20225;-81
2022/12/04 02:14:19;;;;;;;74.90;23.87;;;;;;;-0.69;100.00;101242.75;5083645;28;20199;-80
2022/12/04 02:16:55;;;;;;;67.10;23.47;;;;;;;-0.70;100.00;101241.88;5080805;28;20205;-80
2022/12/04 02:19:44;;;;;;;75.97;23.33;;;;;;;-0.67;100.00;101250.59;5080574;28;20200;-79
2022/12/04 02:22:27;;;;;;;74.63;23.20;;;;;;;-0.68;100.00;101241.00;5080354;28;21458;-81
2022/12/04 02:24:59;;;;;;;71.73;22.47;;;;;;;-0.71;100.00;101234.91;5085140;28;20224;-79
2022/12/04 02:27:57;;;;;;;71.30;23.43;;;;;;;-0.70;100.00;101230.56;5083584;28;20610;-80
2022/12/04 02:30:24;;;;;;;68.63;22.03;;;;;;;-0.69;100.00;101229.69;5084369;28;20241;-79
2022/12/04 02:32:59;;;;;;;66.87;21.67;;;;;;;-0.69;100.00;101232.28;5086081;28;20208;-81
2022/12/04 02:35:30;;;;;;;66.57;19.70;;;;;;;-0.70;100.00;101225.31;5082408;28;20238;-81
2022/12/04 02:38:05;;;;;;;73.93;22.73;;;;;;;-0.70;100.00;101225.31;5089725;28;20200;-80
2022/12/04 02:40:39;;;;;;;67.60;21.57;;;;;;;-0.70;100.00;101231.41;5082792;28;20203;-80
2022/12/04 02:43:13;;;;;;;61.53;22.10;;;;;;;-0.71;100.00;101234.91;5084627;28;20204;-81
2022/12/04 02:45:44;;;;;;;57.27;20.87;;;;;;;-0.70;100.00;101231.41;5085367;28;20219;-80
2022/12/04 02:48:16;;;;;;;64.83;22.43;;;;;;;-0.68;100.00;101225.31;5080258;28;20200;-81
2022/12/04 02:50:43;;;;;;;67.97;20.90;;;;;;;-0.67;100.00;101224.44;5080584;28;20816;-80
2022/12/04 02:53:14;;;;;;;61.60;21.00;;;;;;;-0.67;100.00;101227.91;5085020;28;20667;-81
2022/12/04 02:55:43;;;;;;;58.43;20.70;;;;;;;-0.68;100.00;101234.03;5081094;28;20234;-80
2022/12/04 02:58:15;;;;;;;65.30;22.00;;;;;;;-0.65;100.00;101225.28;5081363;28;20211;-81
2022/12/04 03:00:45;;;;;;;58.50;21.90;;;;;;;-0.66;100.00;101221.81;5087090;28;20196;-79
2022/12/04 03:03:17;;;;;;;68.00;20.73;;;;;;;-0.64;100.00;101225.28;5089519;28;20208;-81
2022/12/04 03:05:53;;;;;;;60.00;20.60;;;;;;;-0.63;100.00;101223.53;5083507;28;20902;-79
2022/12/04 03:08:25;;;;;;;57.60;20.87;;;;;;;-0.62;100.00;101227.88;5089228;28;20203;-80
2022/12/04 03:10:54;;;;;;;61.20;22.60;;;;;;;-0.60;100.00;101228.75;5087002;28;20597;-80
2022/12/04 03:13:26;;;;;;;57.17;20.90;;;;;;;-0.60;100.00;101223.50;5085628;28;20204;-80
2022/12/04 03:15:58;;;;;;;64.27;21.90;;;;;;;-0.59;100.00;101214.78;5081748;28;20238;-80
2022/12/04 03:18:30;;;;;;;68.23;21.93;;;;;;;-0.58;100.00;101221.75;5088999;28;20228;-80
2022/12/04 03:21:01;;;;;;;54.07;21.23;;;;;;;-0.59;100.00;101220.03;5084312;28;20878;-80
2022/12/04 03:23:34;;;;;;;52.40;19.40;;;;;;;-0.58;100.00;101217.41;5087757;28;20204;-79
2022/12/04 03:26:04;;;;;;;59.67;21.03;;;;;;;-0.58;100.00;101214.78;5084041;28;20220;-80
2022/12/04 03:28:37;;;;;;;52.77;20.73;;;;;;;-0.58;100.00;101221.75;5084522;28;20619;-81
2022/12/04 03:31:08;;;;;;;57.67;22.33;;;;;;;-0.58;100.00;101206.94;5084931;28;20223;-80
2022/12/04 03:33:40;;;;;;;60.27;22.10;;;;;;;-0.56;100.00;101205.19;5081636;28;20207;-79
2022/12/04 03:36:13;;;;;;;63.30;22.87;;;;;;;-0.56;100.00;101204.31;5087328;28;20236;-79
2022/12/04 03:38:47;;;;;;;65.83;22.17;;;;;;;-0.57;100.00;101199.94;5082628;28;20208;-80
2022/12/04 03:41:23;;;;;;;61.17;22.17;;;;;;;-0.56;100.00;101205.19;5084453;28;20192;-81
2022/12/04 03:43:53;;;;;;;59.23;23.20;;;;;;;-0.57;100.00;101195.59;5091305;28;20668;-79
2022/12/04 03:46:27;;;;;;;68.67;23.23;;;;;;;-0.58;100.00;101201.69;5088825;28;20736;-80
2022/12/04 03:48:59;;;;;;;68.27;24.03;;;;;;;-0.56;100.00;101201.69;5091300;28;20576;-79
2022/12/04 03:51:33;;;;;;;67.43;24.80;;;;;;;-0.54;100.00;101215.63;5091056;28;20231;-79
2022/12/04 03:54:05;;;;;;;71.60;23.43;;;;;;;-0.56;100.00;101210.41;5084379;28;20212;-79
2022/12/04 03:56:35;;;;;;;67.03;23.40;;;;;;;-0.57;100.00;101206.06;5084252;28;20713;-80
2022/12/04 03:59:09;;;;;;;65.00;22.80;;;;;;;-0.56;100.00;101214.78;5089345;28;20559;-79
2022/12/04 04:01:39;;;;;;;63.93;22.73;;;;;;;-0.54;100.00;101211.25;5089100;28;20192;-79
2022/12/04 04:04:11;;;;;;;70.70;25.73;;;;;;;-0.54;100.00;101218.25;5085516;28;20193;-79
2022/12/04 04:06:42;;;;;;;70.60;25.40;;;;;;;-0.54;100.00;101215.63;5083937;28;20224;-80
2022/12/04 04:09:13;;;;;;;75.20;25.53;;;;;;;-0.55;100.00;101209.53;5087987;28;20201;-81
2022/12/04 04:11:44;;;;;;;68.83;23.20;;;;;;;-0.53;100.00;101212.09;5086667;28;20232;-79
2022/12/04 04:25:27;;;;;;;70.20;25.17;;;;;;;-0.50;100.00;101215.56;5083569;28;20231;-80
2022/12/04 04:27:55;;;;;;;68.63;24.97;;;;;;;-0.50;100.00;101207.72;5086251;28;20207;-79
2022/12/04 04:30:24;;;;;;;73.33;25.53;;;;;;;-0.48;100.00;101215.56;5087880;28;20204;-79
2022/12/04 04:32:56;;;;;;;72.17;25.70;;;;;;;-0.47;100.00;101209.44;5086603;28;20227;-79
2022/12/04 04:35:27;;;;;;;70.83;25.97;;;;;;;-0.47;100.00;101201.59;5083153;28;21132;-79
2022/12/04 04:38:01;;;;;;;69.47;24.93;;;;;;;-0.46;100.00;101198.09;5086572;28;20203;-79
2022/12/04 04:40:36;;;;;;;61.03;23.47;;;;;;;-0.47;100.00;101212.91;5086927;28;20216;-79
2022/12/04 04:43:09;;;;;;;72.50;26.20;;;;;;;-0.46;100.00;101216.41;5086005;28;20196;-80
2022/12/04 04:45:44;;;;;;;69.03;25.60;;;;;;;-0.46;100.00;101219.03;5085573;28;20596;-80
2022/12/04 04:48:14;;;;;;;74.23;26.73;;;;;;;-0.45;100.00;101215.53;5086247;28;20203;-80
2022/12/04 04:50:42;;;;;;;70.83;26.20;;;;;;;-0.46;100.00;101208.56;5084754;28;20208;-79
2022/12/04 04:53:13;;;;;;;70.23;27.17;;;;;;;-0.45;100.00;101210.28;5088631;28;20230;-79
2022/12/04 04:55:40;;;;;;;77.10;27.20;;;;;;;-0.44;100.00;101217.25;5083036;28;20245;-80
2022/12/04 04:58:08;;;;;;;70.33;27.00;;;;;;;-0.43;100.00;101213.78;5084090;28;20207;-80
2022/12/04 05:00:35;;;;;;;79.40;27.80;;;;;;;-0.42;100.00;101219.00;5091014;28;20200;-80
2022/12/04 05:03:04;;;;;;;71.27;26.00;;;;;;;-0.42;100.00;101210.28;5085272;28;20201;-79
2022/12/04 05:05:30;;;;;;;79.83;27.40;;;;;;;-0.41;100.00;101206.78;5090010;28;20240;-79
2022/12/04 05:07:57;;;;;;;79.70;27.00;;;;;;;-0.41;100.00;101212.00;5093027;28;20208;-79
2022/12/04 05:10:23;;;;;;;69.93;26.53;;;;;;;-0.41;100.00;101206.78;5084254;28;20225;-79
2022/12/04 05:12:50;;;;;;;77.27;29.80;;;;;;;-0.40;100.00;101209.38;5090593;28;20242;-81
2022/12/04 05:15:16;;;;;;;81.50;30.47;;;;;;;-0.39;100.00;101213.72;5088779;28;20219;-81
2022/12/04 05:17:43;;;;;;;82.37;28.57;;;;;;;-0.37;100.00;101218.94;5083676;28;20205;-78
2022/12/04 05:20:11;;;;;;;87.70;30.47;;;;;;;-0.38;100.00;101223.31;5084874;28;20208;-79
2022/12/04 05:22:38;;;;;;;85.10;30.37;;;;;;;-0.36;100.00;101225.94;5086675;28;20209;-80
2022/12/04 05:25:05;;;;;;;82.77;28.67;;;;;;;-0.37;100.00;101224.19;5090004;28;20220;-80
2022/12/04 05:27:32;;;;;;;85.87;28.77;;;;;;;-0.36;100.00;101231.16;5082305;28;20193;-80
2022/12/04 05:29:59;;;;;;;80.10;28.00;;;;;;;-0.36;100.00;101225.94;5085416;28;20201;-79
2022/12/04 05:32:27;;;;;;;82.03;28.90;;;;;;;-0.36;100.00;101228.53;5084154;28;20335;-79
2022/12/04 05:34:55;;;;;;;81.70;29.00;;;;;;;-0.36;100.00;101226.75;5086825;28;20273;-80
2022/12/04 05:37:24;;;;;;;81.73;29.07;;;;;;;-0.36;100.00;101225.94;5089683;28;20213;-79
2022/12/04 05:39:50;;;;;;;83.10;30.27;;;;;;;-0.35;100.00;101225.88;5091792;28;20594;-79
2022/12/04 05:42:17;;;;;;;84.90;30.27;;;;;;;-0.35;100.00;101215.41;5090937;28;20209;-79
2022/12/04 05:44:43;;;;;;;83.27;31.87;;;;;;;-0.33;100.00;101217.16;5086110;28;20231;-79
2022/12/04 05:47:10;;;;;;;87.67;29.97;;;;;;;-0.34;100.00;101216.28;5080907;28;20679;-80
2022/12/04 05:49:37;;;;;;;90.20;30.47;;;;;;;-0.33;100.00;101225.00;5087684;28;20207;-78
2022/12/04 05:52:05;;;;;;;76.97;29.13;;;;;;;-0.34;100.00;101221.50;5085145;28;20282;-79
2022/12/04 05:54:33;;;;;;;80.93;29.33;;;;;;;-0.35;100.00;101222.41;5083340;28;20213;-80
2022/12/04 05:56:59;;;;;;;88.40;30.93;;;;;;;-0.33;100.00;101220.63;5082577;28;20217;-80
2022/12/04 05:59:26;;;;;;;92.23;31.73;;;;;;;-0.32;100.00;101222.38;5085281;28;20219;-78
2022/12/04 06:01:52;;;;;;;92.23;32.87;;;;;;;-0.31;100.00;101218.88;5085154;28;20201;-79
2022/12/04 06:04:19;;;;;;;78.40;28.33;;;;;;;-0.30;100.00;101212.75;5083886;28;20201;-79
2022/12/04 06:06:45;;;;;;;82.80;30.43;;;;;;;-0.30;100.00;101225.84;5084471;28;20225;-80
2022/12/04 06:09:12;;;;;;;84.03;29.87;;;;;;;-0.29;100.00;101230.19;5087645;28;20207;-80
2022/12/04 06:11:41;;;;;;;78.27;30.37;;;;;;;-0.30;100.00;101231.06;5086773;28;20242;-80
2022/12/04 06:14:11;;;;;;;79.47;29.77;;;;;;;-0.29;100.00;101226.72;5084824;28;20205;-80
2022/12/04 06:16:39;;;;;;;83.37;30.50;;;;;;;-0.28;100.00;101231.06;5084719;28;20221;-81
2022/12/04 06:19:09;;;;;;;86.80;31.77;;;;;;;-0.28;100.00;101226.69;5091527;28;21679;-79
2022/12/04 06:21:37;;;;;;;82.63;29.03;;;;;;;-0.25;100.00;101233.66;5085136;28;20212;-79
2022/12/04 06:24:04;;;;;;;83.73;29.73;;;;;;;-0.24;100.00;101238.88;5081719;28;20200;-81
2022/12/04 06:26:30;;;;;;;82.77;32.13;;;;;;;-0.25;100.00;101229.28;5083097;28;20224;-79
2022/12/04 06:28:59;;;;;;;92.20;31.53;;;;;;;-0.24;100.00;101233.66;5080322;28;20201;-80
2022/12/04 06:31:27;;;;;;;82.93;29.63;;;;;;;-0.22;100.00;101237.13;5082651;28;20201;-79
2022/12/04 06:33:55;;;;;;;89.70;31.57;;;;;;;-0.22;100.00;101239.75;5085239;28;20196;-80
2022/12/04 06:36:22;;;;;;;80.10;28.83;;;;;;;-0.21;100.00;101236.25;5081412;28;20227;-80
2022/12/04 06:38:49;;;;;;;84.63;31.03;;;;;;;-0.21;100.00;101236.25;5088717;28;20208;-80
2022/12/04 06:41:20;;;;;;;82.87;29.20;;;;;;;-0.21;100.00;101236.25;5085721;28;20196;-80
2022/12/04 06:43:47;;;;;;;81.17;29.83;;;;;;;-0.20;100.00;101237.97;5084621;28;20216;-79
2022/12/04 06:46:17;;;;;;;82.47;29.47;;;;;;;-0.19;100.00;101239.72;5082453;28;20270;-79
2022/12/04 06:48:44;;;;;;;88.83;31.23;;;;;;;-0.20;100.00;101240.59;5083607;28;20200;-79
2022/12/04 06:51:13;;;;;;;77.30;30.67;;;;;;;-0.19;100.00;101238.84;5086313;28;20197;-79
2022/12/04 06:53:40;;;;;;;82.13;29.57;;;;;;;-0.19;100.00;101246.69;5087347;28;20234;-80
2022/12/04 06:56:09;;;;;;;83.37;31.27;;;;;;;-0.17;100.00;101237.91;5084829;28;20232;-79
2022/12/04 06:58:36;;;;;;;77.60;28.83;;;;;;;-0.18;100.00;101248.44;5078372;28;20697;-80
2022/12/04 07:01:07;;;;;;;77.47;29.90;;;;;;;-0.18;100.00;101244.03;5084631;28;20666;-79
2022/12/04 07:03:35;;;;;;;83.83;31.33;;;;;;;-0.17;100.00;101251.00;5082660;28;20197;-80
2022/12/04 07:06:10;;;;;;;79.17;31.00;;;;;;;-0.17;100.00;101248.38;5079283;28;20224;-80
2022/12/04 07:08:37;;;;;;;88.17;31.93;;;;;;;-0.16;100.00;101249.25;5077872;28;20205;-79
2022/12/04 07:11:03;;;;;;;84.67;28.47;;;;;;;-0.17;100.00;101243.16;5088817;28;20568;-79
2022/12/04 07:13:30;;;;;;;80.43;30.47;;;;;;;-0.17;100.00;101251.00;5083987;28;20476;-80
2022/12/04 07:15:59;;;;;;;79.30;29.10;;;;;;;-0.18;100.00;101251.88;5087081;28;20223;-79
2022/12/04 07:18:26;;;;;;;79.97;28.67;;;;;;;-0.18;100.00;101249.28;5089369;28;20208;-79
2022/12/04 07:20:53;;;;;;;77.27;30.17;;;;;;;-0.16;100.00;101262.34;5090339;28;20212;-79
2022/12/04 07:23:20;;;;;;;87.13;29.83;;;;;;;-0.16;100.00;101255.38;5088873;28;20204;-79
2022/12/04 07:25:46;;;;;;;83.27;30.07;;;;;;;-0.16;100.00;101244.88;5091218;28;20873;-80
2022/12/04 07:28:13;;;;;;;76.03;29.63;;;;;;;-0.14;100.00;101247.50;5088942;28;20211;-79
2022/12/04 07:30:39;;;;;;;76.70;29.03;;;;;;;-0.15;100.00;101248.38;5086691;28;20207;-79
2022/12/04 07:33:06;;;;;;;76.20;29.40;;;;;;;-0.16;100.00;101247.50;5089036;28;20583;-79
2022/12/04 07:35:33;;;;;;;72.77;27.60;;;;;;;-0.14;100.00;101250.13;5086020;28;20696;-79
2022/12/04 07:38:00;;;;;;;71.70;29.80;;;;;;;-0.17;100.00;101251.00;5087626;28;20212;-80
2022/12/04 07:40:27;;;;;;;70.23;27.63;;;;;;;-0.16;100.00;101250.13;5088745;28;20207;-78
2022/12/04 07:42:53;;;;;;;77.37;27.63;;;;;;;-0.18;100.00;101248.44;5089884;28;20232;-81
2022/12/04 07:45:20;;;;;;;76.13;28.50;;;;;;;-0.18;100.00;101246.66;5080904;28;20231;-80
2022/12/04 07:47:47;;;;;;;70.33;28.63;;;;;;;-0.18;100.00;101245.81;5086214;28;20208;-79
2022/12/04 07:50:13;;;;;;;71.13;29.00;;;;;;;-0.18;100.00;101244.03;5082698;28;20205;-79
2022/12/04 07:52:40;;;;;;;74.73;28.47;;;;;;;-0.17;100.00;101237.91;5085964;28;20240;-80
2022/12/04 07:55:09;;;;;;;76.07;29.63;;;;;;;-0.16;100.00;101244.88;5090557;28;20251;-79
2022/12/04 07:57:35;;;;;;;79.57;31.87;;;;;;;-0.15;100.00;101241.41;5085814;28;20210;-79
2022/12/04 08:00:02;;;;;;;81.07;29.97;;;;;;;-0.12;100.00;101248.34;5085669;28;20204;-79
2022/12/04 08:02:28;;;;;;;75.33;30.80;;;;;;;-0.13;100.00;101241.38;5085026;28;20203;-78
2022/12/04 08:04:55;;;;;;;82.53;32.10;;;;;;;-0.14;100.00;101243.13;5082617;28;20225;-79
2022/12/04 08:07:21;;;;;;;83.37;32.00;;;;;;;-0.12;100.00;101248.34;5078698;28;20212;-79
2022/12/04 08:09:48;;;;;;;80.43;30.87;;;;;;;-0.13;100.00;101244.88;5085890;28;20213;-78
2022/12/04 08:12:15;;;;;;;73.17;29.83;;;;;;;-0.13;100.00;101234.41;5084449;28;20228;-80
2022/12/04 08:14:42;;;;;;;73.10;30.43;;;;;;;-0.14;100.00;101239.66;5082644;28;20203;-79
2022/12/04 08:17:09;;;;;;;75.63;29.00;;;;;;;-0.13;100.00;101249.22;5083707;28;20557;-80
2022/12/04 08:19:35;;;;;;;82.27;31.53;;;;;;;-0.13;100.00;101249.22;5086976;28;20208;-79
2022/12/04 08:22:02;;;;;;;83.73;31.57;;;;;;;-0.13;100.00;101254.47;5085728;28;20192;-80
2022/12/04 08:24:28;;;;;;;79.00;31.30;;;;;;;-0.14;100.00;101250.97;5093909;28;20196;-80
2022/12/04 08:26:55;;;;;;;86.50;32.10;;;;;;;-0.14;100.00;101255.34;5089687;28;20200;-79
2022/12/04 08:29:23;;;;;;;82.50;31.10;;;;;;;-0.15;100.00;101251.88;5087227;28;20212;-80
2022/12/04 08:31:49;;;;;;;81.60;30.80;;;;;;;-0.15;100.00;101254.47;5088304;28;20608;-79
2022/12/04 08:34:16;;;;;;;79.80;30.67;;;;;;;-0.13;100.00;101257.09;5088814;28;20208;-80
2022/12/04 08:36:42;;;;;;;83.07;30.97;;;;;;;-0.15;100.00;101257.09;5080628;28;20223;-79
2022/12/04 08:39:09;;;;;;;73.47;26.73;;;;;;;-0.14;100.00;101252.72;5082189;28;20752;-80
2022/12/04 08:41:36;;;;;;;82.00;30.70;;;;;;;-0.14;100.00;101253.59;5091429;28;20204;-79
2022/12/04 08:44:03;;;;;;;84.00;29.53;;;;;;;-0.14;100.00;101248.38;5086546;28;20196;-79
2022/12/04 08:46:31;;;;;;;78.57;30.60;;;;;;;-0.13;100.00;101246.63;5084125;28;20641;-79
2022/12/04 08:48:57;;;;;;;82.90;30.73;;;;;;;-0.11;100.00;101250.09;5085818;28;20686;-80
2022/12/04 08:51:26;;;;;;;78.67;31.13;;;;;;;-0.11;100.00;101256.19;5090556;28;20257;-79
2022/12/04 08:53:55;;;;;;;78.07;29.83;;;;;;;-0.12;100.00;101254.47;5082587;28;20610;-80
2022/12/04 08:56:22;;;;;;;84.70;30.80;;;;;;;-0.12;100.00;101257.06;5088805;28;20227;-79
2022/12/04 08:58:49;;;;;;;74.80;31.40;;;;;;;-0.12;100.00;101257.06;5088120;28;20608;-79
2022/12/04 09:01:15;;;;;;;82.73;30.07;;;;;;;-0.11;100.00;101252.72;5085428;28;20204;-79
2022/12/04 09:03:43;;;;;;;86.23;31.40;;;;;;;-0.09;100.00;101258.81;5085199;28;20211;-80
2022/12/04 09:06:12;;;;;;;81.33;30.10;;;;;;;-0.09;100.00;101256.19;5085014;28;20235;-80
2022/12/04 09:08:39;;;;;;;74.10;27.57;;;;;;;-0.09;100.00;101254.44;5086959;28;20203;-79
2022/12/04 09:11:07;;;;;;;79.80;30.27;;;;;;;-0.08;100.00;101252.69;5088882;28;20865;-79
2022/12/04 09:13:34;;;;;;;77.00;29.90;;;;;;;-0.10;100.00;101252.69;5088760;28;20231;-79
2022/12/04 09:16:11;;;;;;;78.47;30.13;;;;;;;-0.10;100.00;101260.56;5090834;28;20232;-79
2022/12/04 09:18:38;;;;;;;69.97;26.00;;;;;;;-0.10;100.00;101254.44;5087463;28;20202;-79
2022/12/04 09:21:09;;;;;;;76.90;29.70;;;;;;;-0.10;100.00;101251.81;5087377;28;20211;-79
2022/12/04 09:23:37;;;;;;;70.77;27.63;;;;;;;-0.10;100.00;101260.56;5090813;28;20215;-81
2022/12/04 09:26:05;;;;;;;77.97;28.93;;;;;;;-0.11;100.00;101253.56;5086001;28;20220;-81
2022/12/04 09:28:31;;;;;;;78.00;30.57;;;;;;;-0.11;100.00;101247.47;5092191;28;20196;-81
2022/12/04 09:30:59;;;;;;;80.43;30.93;;;;;;;-0.12;100.00;101254.47;5089356;28;20206;-80
2022/12/04 09:33:26;;;;;;;83.07;33.43;;;;;;;-0.10;100.00;101251.81;5092080;28;20236;-79
2022/12/04 09:35:52;;;;;;;80.50;29.77;;;;;;;-0.11;100.00;101248.34;5092136;28;20235;-80
2022/12/04 09:38:20;;;;;;;81.77;31.50;;;;;;;-0.09;100.00;101245.72;5090996;28;20722;-79
2022/12/04 09:40:54;;;;;;;82.50;32.87;;;;;;;-0.08;100.00;101239.59;5090601;28;20196;-81
2022/12/04 09:43:28;;;;;;;83.20;31.83;;;;;;;-0.09;100.00;101236.09;5090472;28;20658;-80
2022/12/04 09:46:01;;;;;;;91.37;30.87;;;;;;;-0.08;100.00;101248.31;5090331;28;20227;-80
2022/12/04 09:48:33;;;;;;;78.70;30.10;;;;;;;-0.07;100.00;101244.81;5092306;28;20204;-80
2022/12/04 09:51:03;;;;;;;82.93;30.07;;;;;;;-0.08;100.00;101240.47;5087267;28;20203;-80
2022/12/04 09:53:41;;;;;;;83.03;29.60;;;;;;;-0.06;100.00;101243.06;5089664;28;20247;-79
2022/12/04 09:56:12;;;;;;;87.60;31.03;;;;;;;-0.07;100.00;101243.94;5087883;28;20730;-80
2022/12/04 09:58:45;;;;;;;89.63;31.27;;;;;;;-0.08;100.00;101235.22;5091551;28;20199;-79
2022/12/04 10:01:20;;;;;;;87.83;31.07;;;;;;;-0.08;100.00;101240.47;5091516;28;20579;-80
2022/12/04 10:03:47;;;;;;;86.70;31.43;;;;;;;-0.08;100.00;101237.84;5091021;28;20226;-80
2022/12/04 10:06:18;;;;;;;86.07;33.10;;;;;;;-0.06;100.00;101246.56;5090716;28;20220;-79
2022/12/04 10:08:51;;;;;;;81.63;30.80;;;;;;;-0.04;100.00;101243.91;5089885;28;20204;-81
2022/12/04 10:11:26;;;;;;;77.73;29.83;;;;;;;-0.04;100.00;101239.56;5091274;28;20255;-78
2022/12/04 10:14:07;;;;;;;81.50;31.50;;;;;;;-0.04;100.00;101236.94;5089227;28;20220;-79
2022/12/04 10:16:46;;;;;;;74.90;30.47;;;;;;;-0.03;100.00;101229.94;5094614;28;20270;-80
2022/12/04 10:19:21;;;;;;;83.20;30.70;;;;;;;-0.04;100.00;101228.22;5089703;28;20196;-80
2022/12/04 10:22:00;;;;;;;75.27;31.53;;;;;;;-0.01;100.00;101225.56;5087576;28;20207;-78
2022/12/04 10:24:38;;;;;;;81.67;30.67;;;;;;;-0.02;100.00;101232.56;5089123;28;20200;-77
2022/12/04 10:27:10;;;;;;;82.40;29.50;;;;;;;-0.01;100.00;101233.41;5088884;28;20195;-78
2022/12/04 10:29:40;;;;;;;87.23;30.97;;;;;;;-0.01;100.00;101223.81;5084135;28;20222;-78
2022/12/04 10:32:19;;;;;;;83.57;30.97;;;;;;;-0.02;100.00;101222.06;5089972;28;20200;-78
2022/12/04 10:34:48;;;;;;;82.87;31.37;;;;;;;-0.01;100.00;101226.44;5087472;28;20215;-78
2022/12/04 10:37:15;;;;;;;78.83;29.97;;;;;;;0.00;100.00;101228.13;5086285;28;20204;-78
2022/12/04 10:39:49;;;;;;;84.27;33.27;;;;;;;0.00;100.00;101230.75;5087725;28;20225;-78
2022/12/04 10:42:25;;;;;;;79.27;31.23;;;;;;;0.02;100.00;101230.75;5082623;28;20196;-78
2022/12/04 10:44:52;;;;;;;84.63;31.47;;;;;;;0.03;100.00;101222.00;5081606;28;20228;-78
2022/12/04 10:47:21;;;;;;;84.90;31.83;;;;;;;0.00;100.00;101222.91;5085962;28;20204;-78
2022/12/04 10:49:48;;;;;;;78.20;28.73;;;;;;;0.02;100.00;101232.50;5085649;28;20234;-78
2022/12/04 10:52:14;;;;;;;76.77;29.00;;;;;;;0.02;100.00;101228.13;5086611;28;20196;-79
2022/12/04 10:54:47;;;;;;;76.67;28.77;;;;;;;0.03;100.00;101227.25;5083506;28;20232;-79
2022/12/04 10:57:16;;;;;;;79.07;28.70;;;;;;;0.03;100.00;101224.63;5088794;28;20616;-78
2022/12/04 10:59:50;;;;;;;81.67;30.23;;;;;;;0.02;100.00;101219.41;5085524;28;20227;-78
2022/12/04 11:02:21;;;;;;;85.20;31.33;;;;;;;0.02;100.00;101217.66;5087629;28;20214;-77
2022/12/04 11:04:54;;;;;;;83.57;33.20;;;;;;;0.02;100.00;101209.78;5082867;28;20239;-78
2022/12/04 11:07:23;;;;;;;84.00;30.87;;;;;;;0.03;100.00;101206.28;5085313;28;20251;-77
2022/12/04 11:09:57;;;;;;;76.00;29.57;;;;;;;0.05;100.00;101199.28;5089618;28;20240;-78
2022/12/04 11:12:24;;;;;;;76.77;29.17;;;;;;;0.07;100.00;101189.66;5089187;28;20196;-77
2022/12/04 11:15:00;;;;;;;82.43;30.47;;;;;;;0.06;100.00;101182.69;5082977;28;20236;-79
2022/12/04 11:17:26;;;;;;;79.27;28.67;;;;;;;0.07;100.00;101188.78;5087247;28;20593;-79
2022/12/04 11:20:00;;;;;;;80.87;28.93;;;;;;;0.07;100.00;101184.44;5091706;28;20682;-78
2022/12/04 11:22:26;;;;;;;80.13;30.97;;;;;;;0.07;100.00;101180.94;5087818;28;20207;-78
2022/12/04 11:31:31;;;;;;;81.20;30.20;;;;;;;0.10;100.00;101179.16;5036250;28;20210;-78
2022/12/04 11:34:00;;;;;;;74.57;27.63;;;;;;;0.11;100.00;101177.41;5073547;28;20252;-79